sensor_id;sensor_type;location;lat;lon;timestamp;temperature;humidity
65036;DHT22;51603;49.300;8.880;2022-07-30T00:01:04;18.70;99.90
65036;DHT22;51603;49.300;8.880;2022-07-30T00:03:32;18.70;99.90
65036;DHT22;51603;49.300;8.880;2022-07-30T00:05:58;18.70;99.90
65036;DHT22;51603;49.300;8.880;2022-07-30T00:08:24;18.80;99.90
65036;DHT22;51603;49.300;8.880;2022-07-30T00:10:50;18.80;99.90
65036;DHT22;51603;49.300;8.880;2022-07-30T00:13:16;18.80;99.90
65036;DHT22;51603;49.300;8.880;2022-07-30T00:15:42;18.80;99.90
65036;DHT22;51603;49.300;8.880;2022-07-30T00:18:08;18.80;99.90
65036;DHT22;51603;49.300;8.880;2022-07-30T00:20:34;18.80;99.90
65036;DHT22;51603;49.300;8.880;2022-07-30T00:23:02;18.70;99.90
65036;DHT22;51603;49.300;8.880;2022-07-30T00:25:28;18.70;99.90
65036;DHT22;51603;49.300;8.880;2022-07-30T00:27:54;18.50;99.90
65036;DHT22;51603;49.300;8.880;2022-07-30T00:30:20;18.40;99.90
65036;DHT22;51603;49.300;8.880;2022-07-30T00:32:45;18.40;99.90
65036;DHT22;51603;49.300;8.880;2022-07-30T00:35:11;18.30;99.90
65036;DHT22;51603;49.300;8.880;2022-07-30T00:37:36;18.40;99.90
65036;DHT22;51603;49.300;8.880;2022-07-30T00:40:03;18.30;99.90
65036;DHT22;51603;49.300;8.880;2022-07-30T00:42:45;18.30;99.90
65036;DHT22;51603;49.300;8.880;2022-07-30T00:45:12;18.40;99.90
65036;DHT22;51603;49.300;8.880;2022-07-30T00:47:39;18.30;99.90
65036;DHT22;51603;49.300;8.880;2022-07-30T00:50:07;18.10;99.90
65036;DHT22;51603;49.300;8.880;2022-07-30T00:52:34;18.10;99.90
65036;DHT22;51603;49.300;8.880;2022-07-30T00:55:00;18.00;99.90
65036;DHT22;51603;49.300;8.880;2022-07-30T00:57:27;18.00;99.90
65036;DHT22;51603;49.300;8.880;2022-07-30T00:59:53;17.90;99.90
65036;DHT22;51603;49.300;8.880;2022-07-30T01:02:19;17.90;99.90
65036;DHT22;51603;49.300;8.880;2022-07-30T01:04:45;17.90;99.90
65036;DHT22;51603;49.300;8.880;2022-07-30T01:07:11;17.90;99.90
65036;DHT22;51603;49.300;8.880;2022-07-30T01:09:37;17.90;99.90
65036;DHT22;51603;49.300;8.880;2022-07-30T01:12:04;18.00;99.90
65036;DHT22;51603;49.300;8.880;2022-07-30T01:14:33;18.00;99.90
65036;DHT22;51603;49.300;8.880;2022-07-30T01:16:59;18.00;99.90
65036;DHT22;51603;49.300;8.880;2022-07-30T01:19:28;18.10;99.90
65036;DHT22;51603;49.300;8.880;2022-07-30T01:28:12;18.10;99.90
65036;DHT22;51603;49.300;8.880;2022-07-30T01:30:42;18.10;99.90
65036;DHT22;51603;49.300;8.880;2022-07-30T01:33:13;18.10;99.90
65036;DHT22;51603;49.300;8.880;2022-07-30T01:35:41;18.10;99.90
65036;DHT22;51603;49.300;8.880;2022-07-30T01:38:08;18.00;99.90
65036;DHT22;51603;49.300;8.880;2022-07-30T01:40:36;18.00;99.90
65036;DHT22;51603;49.300;8.880;2022-07-30T01:43:03;17.90;99.90
65036;DHT22;51603;49.300;8.880;2022-07-30T01:45:31;17.80;99.90
65036;DHT22;51603;49.300;8.880;2022-07-30T01:47:59;17.80;99.90
65036;DHT22;51603;49.300;8.880;2022-07-30T01:50:28;17.70;99.90
65036;DHT22;51603;49.300;8.880;2022-07-30T01:52:56;17.60;99.90
65036;DHT22;51603;49.300;8.880;2022-07-30T01:55:36;17.50;99.90
65036;DHT22;51603;49.300;8.880;2022-07-30T01:58:04;17.50;99.90
65036;DHT22;51603;49.300;8.880;2022-07-30T02:00:32;17.60;99.90
65036;DHT22;51603;49.300;8.880;2022-07-30T02:02:58;17.50;99.90
65036;DHT22;51603;49.300;8.880;2022-07-30T02:05:26;17.50;99.90
65036;DHT22;51603;49.300;8.880;2022-07-30T02:07:58;17.50;99.90
65036;DHT22;51603;49.300;8.880;2022-07-30T02:10:34;17.50;99.90
65036;DHT22;51603;49.300;8.880;2022-07-30T02:13:02;17.50;99.90
65036;DHT22;51603;49.300;8.880;2022-07-30T02:15:48;17.60;99.90
65036;DHT22;51603;49.300;8.880;2022-07-30T02:18:19;17.60;99.90
65036;DHT22;51603;49.300;8.880;2022-07-30T02:20:50;17.50;99.90
65036;DHT22;51603;49.300;8.880;2022-07-30T02:23:18;17.40;99.90
65036;DHT22;51603;49.300;8.880;2022-07-30T02:25:49;17.40;99.90
65036;DHT22;51603;49.300;8.880;2022-07-30T02:28:17;17.40;99.90
65036;DHT22;51603;49.300;8.880;2022-07-30T02:30:48;17.30;99.90
65036;DHT22;51603;49.300;8.880;2022-07-30T02:33:16;17.20;99.90
65036;DHT22;51603;49.300;8.880;2022-07-30T02:35:43;17.20;99.90
65036;DHT22;51603;49.300;8.880;2022-07-30T02:38:10;17.20;99.90
65036;DHT22;51603;49.300;8.880;2022-07-30T02:40:40;17.20;99.90
65036;DHT22;51603;49.300;8.880;2022-07-30T02:43:06;17.20;99.90
65036;DHT22;51603;49.300;8.880;2022-07-30T02:45:32;17.00;99.90
65036;DHT22;51603;49.300;8.880;2022-07-30T02:48:01;16.90;99.90
65036;DHT22;51603;49.300;8.880;2022-07-30T02:50:29;17.00;99.90
65036;DHT22;51603;49.300;8.880;2022-07-30T02:52:57;17.00;99.90
65036;DHT22;51603;49.300;8.880;2022-07-30T02:55:25;17.10;99.90
65036;DHT22;51603;49.300;8.880;2022-07-30T02:57:52;17.10;99.90
65036;DHT22;51603;49.300;8.880;2022-07-30T03:00:20;17.00;99.90
65036;DHT22;51603;49.300;8.880;2022-07-30T03:02:46;17.10;99.90
65036;DHT22;51603;49.300;8.880;2022-07-30T03:05:13;17.00;99.90
65036;DHT22;51603;49.300;8.880;2022-07-30T03:07:40;17.00;99.90
65036;DHT22;51603;49.300;8.880;2022-07-30T03:10:07;16.90;99.90
65036;DHT22;51603;49.300;8.880;2022-07-30T03:12:33;17.00;99.90
65036;DHT22;51603;49.300;8.880;2022-07-30T03:15:00;17.00;99.90
65036;DHT22;51603;49.300;8.880;2022-07-30T03:17:27;17.10;99.90
65036;DHT22;51603;49.300;8.880;2022-07-30T03:19:54;17.10;99.90
65036;DHT22;51603;49.300;8.880;2022-07-30T03:22:23;17.10;99.90
65036;DHT22;51603;49.300;8.880;2022-07-30T03:24:51;17.20;99.90
65036;DHT22;51603;49.300;8.880;2022-07-30T03:27:18;17.10;99.90
65036;DHT22;51603;49.300;8.880;2022-07-30T03:29:47;17.10;99.90
65036;DHT22;51603;49.300;8.880;2022-07-30T03:32:14;17.20;99.90
65036;DHT22;51603;49.300;8.880;2022-07-30T03:34:40;17.20;99.90
65036;DHT22;51603;49.300;8.880;2022-07-30T03:37:07;17.20;99.90
65036;DHT22;51603;49.300;8.880;2022-07-30T03:39:33;17.20;99.90
65036;DHT22;51603;49.300;8.880;2022-07-30T03:42:00;17.10;99.90
65036;DHT22;51603;49.300;8.880;2022-07-30T03:44:26;17.10;99.90
65036;DHT22;51603;49.300;8.880;2022-07-30T03:46:53;17.10;99.90
65036;DHT22;51603;49.300;8.880;2022-07-30T03:49:20;17.00;99.90
65036;DHT22;51603;49.300;8.880;2022-07-30T03:51:47;17.00;99.90
65036;DHT22;51603;49.300;8.880;2022-07-30T03:54:14;17.00;99.90
65036;DHT22;51603;49.300;8.880;2022-07-30T03:56:41;17.00;99.90
65036;DHT22;51603;49.300;8.880;2022-07-30T03:59:07;17.00;99.90
65036;DHT22;51603;49.300;8.880;2022-07-30T04:01:32;17.00;99.90
65036;DHT22;51603;49.300;8.880;2022-07-30T04:04:09;17.00;99.90
65036;DHT22;51603;49.300;8.880;2022-07-30T04:06:35;17.00;99.90
65036;DHT22;51603;49.300;8.880;2022-07-30T04:09:07;16.90;99.90
65036;DHT22;51603;49.300;8.880;2022-07-30T04:11:33;16.90;99.90
65036;DHT22;51603;49.300;8.880;2022-07-30T04:13:58;16.90;99.90
65036;DHT22;51603;49.300;8.880;2022-07-30T04:16:54;16.80;99.90
65036;DHT22;51603;49.300;8.880;2022-07-30T04:19:37;16.70;99.90
65036;DHT22;51603;49.300;8.880;2022-07-30T04:22:04;16.60;99.90
65036;DHT22;51603;49.300;8.880;2022-07-30T04:24:32;16.50;99.90
65036;DHT22;51603;49.300;8.880;2022-07-30T04:26:59;16.50;99.90
65036;DHT22;51603;49.300;8.880;2022-07-30T04:29:26;16.60;99.90
65036;DHT22;51603;49.300;8.880;2022-07-30T04:31:53;16.70;99.90
65036;DHT22;51603;49.300;8.880;2022-07-30T04:34:18;16.70;99.90
65036;DHT22;51603;49.300;8.880;2022-07-30T04:36:44;16.70;99.90
65036;DHT22;51603;49.300;8.880;2022-07-30T04:39:10;16.70;99.90
65036;DHT22;51603;49.300;8.880;2022-07-30T04:41:36;16.80;99.90
65036;DHT22;51603;49.300;8.880;2022-07-30T04:44:02;16.70;99.90
65036;DHT22;51603;49.300;8.880;2022-07-30T04:46:28;16.60;99.90
65036;DHT22;51603;49.300;8.880;2022-07-30T04:48:53;16.60;99.90
65036;DHT22;51603;49.300;8.880;2022-07-30T04:51:22;16.50;99.90
65036;DHT22;51603;49.300;8.880;2022-07-30T04:53:50;16.40;99.90
65036;DHT22;51603;49.300;8.880;2022-07-30T04:56:17;16.30;99.90
65036;DHT22;51603;49.300;8.880;2022-07-30T04:58:44;16.30;99.90
65036;DHT22;51603;49.300;8.880;2022-07-30T05:01:11;16.30;99.90
65036;DHT22;51603;49.300;8.880;2022-07-30T05:03:37;16.40;99.90
65036;DHT22;51603;49.300;8.880;2022-07-30T05:06:04;16.50;99.90
65036;DHT22;51603;49.300;8.880;2022-07-30T05:08:30;16.60;99.90
65036;DHT22;51603;49.300;8.880;2022-07-30T05:10:56;16.70;99.90
65036;DHT22;51603;49.300;8.880;2022-07-30T05:13:21;16.90;99.90
65036;DHT22;51603;49.300;8.880;2022-07-30T05:15:47;16.90;99.90
65036;DHT22;51603;49.300;8.880;2022-07-30T05:18:13;17.00;99.90
65036;DHT22;51603;49.300;8.880;2022-07-30T05:20:39;17.10;99.90
65036;DHT22;51603;49.300;8.880;2022-07-30T05:23:05;17.20;99.90
65036;DHT22;51603;49.300;8.880;2022-07-30T05:25:30;17.20;99.90
65036;DHT22;51603;49.300;8.880;2022-07-30T05:27:56;17.20;99.90
65036;DHT22;51603;49.300;8.880;2022-07-30T05:30:23;17.30;99.90
65036;DHT22;51603;49.300;8.880;2022-07-30T05:32:48;17.30;99.90
65036;DHT22;51603;49.300;8.880;2022-07-30T05:35:14;17.30;99.90
65036;DHT22;51603;49.300;8.880;2022-07-30T05:37:39;17.40;99.90
65036;DHT22;51603;49.300;8.880;2022-07-30T05:40:05;17.50;99.90
65036;DHT22;51603;49.300;8.880;2022-07-30T05:42:31;17.50;99.90
65036;DHT22;51603;49.300;8.880;2022-07-30T05:44:56;17.70;99.90
65036;DHT22;51603;49.300;8.880;2022-07-30T05:47:22;17.80;99.90
65036;DHT22;51603;49.300;8.880;2022-07-30T05:49:47;17.90;99.90
65036;DHT22;51603;49.300;8.880;2022-07-30T05:52:13;18.00;99.90
65036;DHT22;51603;49.300;8.880;2022-07-30T05:54:39;18.10;99.90
65036;DHT22;51603;49.300;8.880;2022-07-30T05:57:04;18.20;99.90
65036;DHT22;51603;49.300;8.880;2022-07-30T05:59:30;18.30;99.90
65036;DHT22;51603;49.300;8.880;2022-07-30T06:01:56;18.40;99.90
65036;DHT22;51603;49.300;8.880;2022-07-30T06:04:21;18.40;99.90
65036;DHT22;51603;49.300;8.880;2022-07-30T06:06:47;18.50;99.90
65036;DHT22;51603;49.300;8.880;2022-07-30T06:09:13;18.60;99.90
65036;DHT22;51603;49.300;8.880;2022-07-30T06:11:38;18.60;99.90
65036;DHT22;51603;49.300;8.880;2022-07-30T06:14:04;18.70;99.90
65036;DHT22;51603;49.300;8.880;2022-07-30T06:16:29;18.70;99.90
65036;DHT22;51603;49.300;8.880;2022-07-30T06:18:55;18.80;99.90
65036;DHT22;51603;49.300;8.880;2022-07-30T06:21:20;18.90;99.90
65036;DHT22;51603;49.300;8.880;2022-07-30T06:23:46;19.00;99.90
65036;DHT22;51603;49.300;8.880;2022-07-30T06:26:12;19.10;99.90
65036;DHT22;51603;49.300;8.880;2022-07-30T06:28:38;19.10;99.90
65036;DHT22;51603;49.300;8.880;2022-07-30T06:31:03;19.20;99.90
65036;DHT22;51603;49.300;8.880;2022-07-30T06:33:29;19.30;99.90
65036;DHT22;51603;49.300;8.880;2022-07-30T06:35:54;19.40;99.90
65036;DHT22;51603;49.300;8.880;2022-07-30T06:38:20;19.40;99.90
65036;DHT22;51603;49.300;8.880;2022-07-30T06:40:45;19.50;99.90
65036;DHT22;51603;49.300;8.880;2022-07-30T06:43:11;19.60;99.90
65036;DHT22;51603;49.300;8.880;2022-07-30T06:45:37;19.70;99.90
65036;DHT22;51603;49.300;8.880;2022-07-30T06:48:03;19.80;99.90
65036;DHT22;51603;49.300;8.880;2022-07-30T06:50:29;19.90;99.90
65036;DHT22;51603;49.300;8.880;2022-07-30T06:52:55;20.00;99.90
65036;DHT22;51603;49.300;8.880;2022-07-30T06:55:20;20.00;99.90
65036;DHT22;51603;49.300;8.880;2022-07-30T06:57:46;20.10;99.90
65036;DHT22;51603;49.300;8.880;2022-07-30T07:00:12;20.10;99.90
65036;DHT22;51603;49.300;8.880;2022-07-30T07:02:37;20.20;99.90
65036;DHT22;51603;49.300;8.880;2022-07-30T07:05:04;20.30;99.90
65036;DHT22;51603;49.300;8.880;2022-07-30T07:07:29;20.50;99.90
65036;DHT22;51603;49.300;8.880;2022-07-30T07:09:55;20.60;99.90
65036;DHT22;51603;49.300;8.880;2022-07-30T07:12:20;20.60;99.70
65036;DHT22;51603;49.300;8.880;2022-07-30T07:14:46;20.60;99.70
65036;DHT22;51603;49.300;8.880;2022-07-30T07:17:11;20.70;99.70
65036;DHT22;51603;49.300;8.880;2022-07-30T07:19:37;20.80;99.40
65036;DHT22;51603;49.300;8.880;2022-07-30T07:22:02;20.90;99.20
65036;DHT22;51603;49.300;8.880;2022-07-30T07:24:28;20.90;99.10
65036;DHT22;51603;49.300;8.880;2022-07-30T07:26:53;21.00;98.80
65036;DHT22;51603;49.300;8.880;2022-07-30T07:29:19;21.00;98.80
65036;DHT22;51603;49.300;8.880;2022-07-30T07:31:44;21.10;98.20
65036;DHT22;51603;49.300;8.880;2022-07-30T07:34:10;21.20;98.40
65036;DHT22;51603;49.300;8.880;2022-07-30T07:36:36;21.30;98.10
65036;DHT22;51603;49.300;8.880;2022-07-30T07:39:02;21.30;97.80
65036;DHT22;51603;49.300;8.880;2022-07-30T07:41:34;21.30;96.90
65036;DHT22;51603;49.300;8.880;2022-07-30T07:44:00;21.40;96.80
65036;DHT22;51603;49.300;8.880;2022-07-30T07:46:26;21.50;96.60
65036;DHT22;51603;49.300;8.880;2022-07-30T07:48:51;21.60;96.70
65036;DHT22;51603;49.300;8.880;2022-07-30T07:51:16;21.80;96.40
65036;DHT22;51603;49.300;8.880;2022-07-30T07:53:42;21.80;95.90
65036;DHT22;51603;49.300;8.880;2022-07-30T07:56:08;21.80;95.90
65036;DHT22;51603;49.300;8.880;2022-07-30T07:58:33;21.80;95.30
65036;DHT22;51603;49.300;8.880;2022-07-30T08:00:59;21.90;95.80
65036;DHT22;51603;49.300;8.880;2022-07-30T08:03:24;22.00;95.70
65036;DHT22;51603;49.300;8.880;2022-07-30T08:05:50;22.10;95.00
65036;DHT22;51603;49.300;8.880;2022-07-30T08:08:15;22.20;94.80
65036;DHT22;51603;49.300;8.880;2022-07-30T08:10:41;22.30;94.80
65036;DHT22;51603;49.300;8.880;2022-07-30T08:13:07;22.40;94.40
65036;DHT22;51603;49.300;8.880;2022-07-30T08:15:32;22.50;94.10
65036;DHT22;51603;49.300;8.880;2022-07-30T08:17:58;22.60;93.20
65036;DHT22;51603;49.300;8.880;2022-07-30T08:20:23;22.70;93.30
65036;DHT22;51603;49.300;8.880;2022-07-30T08:22:50;22.70;93.10
65036;DHT22;51603;49.300;8.880;2022-07-30T08:25:15;22.80;92.20
65036;DHT22;51603;49.300;8.880;2022-07-30T08:27:43;23.00;92.80
65036;DHT22;51603;49.300;8.880;2022-07-30T08:30:09;23.20;92.00
65036;DHT22;51603;49.300;8.880;2022-07-30T08:32:35;23.40;91.20
65036;DHT22;51603;49.300;8.880;2022-07-30T08:35:01;23.60;91.10
65036;DHT22;51603;49.300;8.880;2022-07-30T08:37:27;23.70;90.20
65036;DHT22;51603;49.300;8.880;2022-07-30T08:39:53;23.80;88.70
65036;DHT22;51603;49.300;8.880;2022-07-30T08:42:18;23.90;89.20
65036;DHT22;51603;49.300;8.880;2022-07-30T08:44:45;24.00;86.80
65036;DHT22;51603;49.300;8.880;2022-07-30T08:47:15;24.10;86.70
65036;DHT22;51603;49.300;8.880;2022-07-30T08:49:41;24.10;84.60
65036;DHT22;51603;49.300;8.880;2022-07-30T08:52:09;24.20;84.80
65036;DHT22;51603;49.300;8.880;2022-07-30T08:54:35;24.30;82.90
65036;DHT22;51603;49.300;8.880;2022-07-30T08:57:01;24.30;82.90
65036;DHT22;51603;49.300;8.880;2022-07-30T08:59:27;24.40;82.70
65036;DHT22;51603;49.300;8.880;2022-07-30T09:01:53;24.50;80.20
65036;DHT22;51603;49.300;8.880;2022-07-30T09:04:19;24.70;82.40
65036;DHT22;51603;49.300;8.880;2022-07-30T09:06:44;24.90;77.90
65036;DHT22;51603;49.300;8.880;2022-07-30T09:09:10;24.90;80.10
65036;DHT22;51603;49.300;8.880;2022-07-30T09:11:35;24.90;79.00
65036;DHT22;51603;49.300;8.880;2022-07-30T09:14:09;24.80;78.00
65036;DHT22;51603;49.300;8.880;2022-07-30T09:16:35;24.90;80.00
65036;DHT22;51603;49.300;8.880;2022-07-30T09:19:12;24.90;76.60
65036;DHT22;51603;49.300;8.880;2022-07-30T09:21:37;24.70;72.80
65036;DHT22;51603;49.300;8.880;2022-07-30T09:24:10;24.70;73.90
65036;DHT22;51603;49.300;8.880;2022-07-30T09:29:21;25.10;80.60
65036;DHT22;51603;49.300;8.880;2022-07-30T09:32:04;25.60;75.00
65036;DHT22;51603;49.300;8.880;2022-07-30T09:34:36;25.80;71.70
65036;DHT22;51603;49.300;8.880;2022-07-30T09:37:04;25.80;68.40
65036;DHT22;51603;49.300;8.880;2022-07-30T09:39:41;25.70;69.50
65036;DHT22;51603;49.300;8.880;2022-07-30T09:42:22;25.80;69.90
65036;DHT22;51603;49.300;8.880;2022-07-30T09:44:49;25.60;67.30
65036;DHT22;51603;49.300;8.880;2022-07-30T09:47:34;25.60;67.00
65036;DHT22;51603;49.300;8.880;2022-07-30T09:50:06;25.70;65.60
65036;DHT22;51603;49.300;8.880;2022-07-30T09:52:32;25.70;65.40
65036;DHT22;51603;49.300;8.880;2022-07-30T09:54:57;25.70;65.60
65036;DHT22;51603;49.300;8.880;2022-07-30T09:57:23;25.80;62.60
65036;DHT22;51603;49.300;8.880;2022-07-30T09:59:48;25.90;61.10
65036;DHT22;51603;49.300;8.880;2022-07-30T10:02:14;25.90;60.20
65036;DHT22;51603;49.300;8.880;2022-07-30T10:04:40;26.10;59.60
65036;DHT22;51603;49.300;8.880;2022-07-30T10:07:16;26.20;59.70
65036;DHT22;51603;49.300;8.880;2022-07-30T10:09:42;26.30;58.10
65036;DHT22;51603;49.300;8.880;2022-07-30T10:12:10;26.40;58.00
65036;DHT22;51603;49.300;8.880;2022-07-30T10:14:37;26.30;58.80
65036;DHT22;51603;49.300;8.880;2022-07-30T10:17:06;26.00;57.90
65036;DHT22;51603;49.300;8.880;2022-07-30T10:19:32;26.10;58.90
65036;DHT22;51603;49.300;8.880;2022-07-30T10:21:58;26.30;57.90
65036;DHT22;51603;49.300;8.880;2022-07-30T10:24:24;26.40;55.90
65036;DHT22;51603;49.300;8.880;2022-07-30T10:26:51;26.70;56.60
65036;DHT22;51603;49.300;8.880;2022-07-30T10:29:18;27.00;57.20
65036;DHT22;51603;49.300;8.880;2022-07-30T10:31:45;27.10;55.50
65036;DHT22;51603;49.300;8.880;2022-07-30T10:34:12;27.20;55.80
65036;DHT22;51603;49.300;8.880;2022-07-30T10:36:44;27.20;54.10
65036;DHT22;51603;49.300;8.880;2022-07-30T10:39:15;27.00;54.50
65036;DHT22;51603;49.300;8.880;2022-07-30T10:44:14;27.30;53.20
65036;DHT22;51603;49.300;8.880;2022-07-30T10:46:56;27.10;52.80
65036;DHT22;51603;49.300;8.880;2022-07-30T10:49:25;26.80;53.20
65036;DHT22;51603;49.300;8.880;2022-07-30T10:51:51;26.60;52.60
65036;DHT22;51603;49.300;8.880;2022-07-30T10:54:40;26.70;54.50
65036;DHT22;51603;49.300;8.880;2022-07-30T11:02:21;27.20;53.60
65036;DHT22;51603;49.300;8.880;2022-07-30T11:04:47;27.20;53.30
65036;DHT22;51603;49.300;8.880;2022-07-30T11:09:53;26.90;51.60
65036;DHT22;51603;49.300;8.880;2022-07-30T11:15:12;26.80;53.40
65036;DHT22;51603;49.300;8.880;2022-07-30T11:17:57;27.20;53.40
65036;DHT22;51603;49.300;8.880;2022-07-30T11:20:24;27.40;51.50
65036;DHT22;51603;49.300;8.880;2022-07-30T11:22:50;27.60;51.70
65036;DHT22;51603;49.300;8.880;2022-07-30T11:27:49;27.40;50.10
65036;DHT22;51603;49.300;8.880;2022-07-30T11:32:41;26.90;51.40
65036;DHT22;51603;49.300;8.880;2022-07-30T11:35:27;26.60;52.30
65036;DHT22;51603;49.300;8.880;2022-07-30T11:38:08;26.50;52.20
65036;DHT22;51603;49.300;8.880;2022-07-30T11:40:36;26.60;53.00
65036;DHT22;51603;49.300;8.880;2022-07-30T11:46:15;27.10;52.60
65036;DHT22;51603;49.300;8.880;2022-07-30T11:49:01;27.40;51.60
65036;DHT22;51603;49.300;8.880;2022-07-30T11:54:06;27.30;51.00
65036;DHT22;51603;49.300;8.880;2022-07-30T11:56:32;27.40;50.50
65036;DHT22;51603;49.300;8.880;2022-07-30T11:59:06;27.40;51.60
65036;DHT22;51603;49.300;8.880;2022-07-30T12:01:32;27.80;50.60
65036;DHT22;51603;49.300;8.880;2022-07-30T12:04:05;28.10;49.90
65036;DHT22;51603;49.300;8.880;2022-07-30T12:06:31;28.10;48.90
65036;DHT22;51603;49.300;8.880;2022-07-30T12:08:57;27.80;48.80
65036;DHT22;51603;49.300;8.880;2022-07-30T12:11:24;27.70;50.10
65036;DHT22;51603;49.300;8.880;2022-07-30T12:13:57;27.80;48.70
65036;DHT22;51603;49.300;8.880;2022-07-30T12:16:25;28.00;49.20
65036;DHT22;51603;49.300;8.880;2022-07-30T12:18:52;28.20;47.10
65036;DHT22;51603;49.300;8.880;2022-07-30T12:21:18;28.10;46.10
65036;DHT22;51603;49.300;8.880;2022-07-30T12:23:59;28.10;46.20
65036;DHT22;51603;49.300;8.880;2022-07-30T12:26:27;28.30;47.50
65036;DHT22;51603;49.300;8.880;2022-07-30T12:28:55;28.70;46.50
65036;DHT22;51603;49.300;8.880;2022-07-30T12:31:21;28.80;46.50
65036;DHT22;51603;49.300;8.880;2022-07-30T12:33:46;29.00;45.60
65036;DHT22;51603;49.300;8.880;2022-07-30T12:36:26;28.90;44.70
65036;DHT22;51603;49.300;8.880;2022-07-30T12:38:52;28.70;44.00
65036;DHT22;51603;49.300;8.880;2022-07-30T12:41:19;28.80;44.80
65036;DHT22;51603;49.300;8.880;2022-07-30T12:43:52;28.70;43.30
65036;DHT22;51603;49.300;8.880;2022-07-30T12:46:19;28.40;44.70
65036;DHT22;51603;49.300;8.880;2022-07-30T12:51:17;28.40;45.20
65036;DHT22;51603;49.300;8.880;2022-07-30T12:53:42;28.30;45.10
65036;DHT22;51603;49.300;8.880;2022-07-30T12:56:16;28.30;45.20
65036;DHT22;51603;49.300;8.880;2022-07-30T12:58:43;28.30;44.50
65036;DHT22;51603;49.300;8.880;2022-07-30T13:01:09;28.50;44.90
65036;DHT22;51603;49.300;8.880;2022-07-30T13:03:35;28.60;44.10
65036;DHT22;51603;49.300;8.880;2022-07-30T13:06:18;28.70;43.30
65036;DHT22;51603;49.300;8.880;2022-07-30T13:08:55;28.70;43.50
65036;DHT22;51603;49.300;8.880;2022-07-30T13:11:24;28.80;43.70
65036;DHT22;51603;49.300;8.880;2022-07-30T13:13:50;29.00;43.60
65036;DHT22;51603;49.300;8.880;2022-07-30T13:16:17;29.30;43.50
65036;DHT22;51603;49.300;8.880;2022-07-30T13:18:43;29.20;42.60
65036;DHT22;51603;49.300;8.880;2022-07-30T13:21:09;29.30;42.20
65036;DHT22;51603;49.300;8.880;2022-07-30T13:23:36;29.10;41.70
65036;DHT22;51603;49.300;8.880;2022-07-30T13:26:04;29.00;41.70
65036;DHT22;51603;49.300;8.880;2022-07-30T13:28:30;29.20;42.90
65036;DHT22;51603;49.300;8.880;2022-07-30T13:30:56;29.20;43.10
65036;DHT22;51603;49.300;8.880;2022-07-30T13:33:22;29.20;42.80
65036;DHT22;51603;49.300;8.880;2022-07-30T13:35:48;29.40;43.70
65036;DHT22;51603;49.300;8.880;2022-07-30T13:38:13;29.50;43.10
65036;DHT22;51603;49.300;8.880;2022-07-30T13:40:40;29.50;40.90
65036;DHT22;51603;49.300;8.880;2022-07-30T13:43:06;29.50;42.60
65036;DHT22;51603;49.300;8.880;2022-07-30T13:45:32;29.70;43.20
65036;DHT22;51603;49.300;8.880;2022-07-30T13:47:58;29.90;39.90
65036;DHT22;51603;49.300;8.880;2022-07-30T13:50:24;30.10;40.10
65036;DHT22;51603;49.300;8.880;2022-07-30T13:52:49;30.00;40.80
65036;DHT22;51603;49.300;8.880;2022-07-30T13:55:15;30.20;39.60
65036;DHT22;51603;49.300;8.880;2022-07-30T13:57:40;30.30;39.80
65036;DHT22;51603;49.300;8.880;2022-07-30T14:00:08;30.20;39.20
65036;DHT22;51603;49.300;8.880;2022-07-30T14:02:34;30.20;38.90
65036;DHT22;51603;49.300;8.880;2022-07-30T14:05:00;30.30;38.90
65036;DHT22;51603;49.300;8.880;2022-07-30T14:07:32;30.30;38.40
65036;DHT22;51603;49.300;8.880;2022-07-30T14:09:57;30.10;38.10
65036;DHT22;51603;49.300;8.880;2022-07-30T14:12:23;30.10;38.70
65036;DHT22;51603;49.300;8.880;2022-07-30T14:14:48;29.80;38.40
65036;DHT22;51603;49.300;8.880;2022-07-30T14:17:14;30.00;38.70
65036;DHT22;51603;49.300;8.880;2022-07-30T14:19:39;29.90;38.80
65036;DHT22;51603;49.300;8.880;2022-07-30T14:22:05;29.80;38.30
65036;DHT22;51603;49.300;8.880;2022-07-30T14:24:30;29.70;39.60
65036;DHT22;51603;49.300;8.880;2022-07-30T14:26:56;29.50;39.40
65036;DHT22;51603;49.300;8.880;2022-07-30T14:29:21;29.20;38.70
65036;DHT22;51603;49.300;8.880;2022-07-30T14:31:47;29.10;39.70
65036;DHT22;51603;49.300;8.880;2022-07-30T14:34:12;29.10;39.30
65036;DHT22;51603;49.300;8.880;2022-07-30T14:36:38;29.00;39.00
65036;DHT22;51603;49.300;8.880;2022-07-30T14:39:04;28.90;39.80
65036;DHT22;51603;49.300;8.880;2022-07-30T14:41:30;28.90;39.60
65036;DHT22;51603;49.300;8.880;2022-07-30T14:43:56;28.80;40.00
65036;DHT22;51603;49.300;8.880;2022-07-30T14:46:22;28.60;40.60
65036;DHT22;51603;49.300;8.880;2022-07-30T14:48:48;28.60;39.90
65036;DHT22;51603;49.300;8.880;2022-07-30T14:51:14;28.60;40.10
65036;DHT22;51603;49.300;8.880;2022-07-30T14:53:40;28.60;39.40
65036;DHT22;51603;49.300;8.880;2022-07-30T14:56:05;28.80;40.20
65036;DHT22;51603;49.300;8.880;2022-07-30T14:58:31;28.90;39.20
65036;DHT22;51603;49.300;8.880;2022-07-30T15:00:57;29.10;39.30
65036;DHT22;51603;49.300;8.880;2022-07-30T15:03:22;29.20;38.70
65036;DHT22;51603;49.300;8.880;2022-07-30T15:05:48;29.60;39.20
65036;DHT22;51603;49.300;8.880;2022-07-30T15:08:13;29.70;38.70
65036;DHT22;51603;49.300;8.880;2022-07-30T15:10:39;30.00;38.20
65036;DHT22;51603;49.300;8.880;2022-07-30T15:13:04;30.30;37.50
65036;DHT22;51603;49.300;8.880;2022-07-30T15:15:30;30.20;37.20
65036;DHT22;51603;49.300;8.880;2022-07-30T15:17:57;29.80;36.60
65036;DHT22;51603;49.300;8.880;2022-07-30T15:20:23;29.40;37.40
65036;DHT22;51603;49.300;8.880;2022-07-30T15:22:48;29.20;37.80
65036;DHT22;51603;49.300;8.880;2022-07-30T15:25:14;29.10;38.50
65036;DHT22;51603;49.300;8.880;2022-07-30T15:27:39;29.30;37.90
65036;DHT22;51603;49.300;8.880;2022-07-30T15:30:05;29.60;37.10
65036;DHT22;51603;49.300;8.880;2022-07-30T15:32:31;29.70;37.40
65036;DHT22;51603;49.300;8.880;2022-07-30T15:34:56;29.50;37.40
65036;DHT22;51603;49.300;8.880;2022-07-30T15:37:23;29.20;38.90
65036;DHT22;51603;49.300;8.880;2022-07-30T15:39:48;29.10;40.60
65036;DHT22;51603;49.300;8.880;2022-07-30T15:42:14;29.10;41.50
65036;DHT22;51603;49.300;8.880;2022-07-30T15:44:39;29.30;40.10
65036;DHT22;51603;49.300;8.880;2022-07-30T15:47:05;29.20;39.50
65036;DHT22;51603;49.300;8.880;2022-07-30T15:49:30;29.10;40.50
65036;DHT22;51603;49.300;8.880;2022-07-30T15:51:58;29.10;41.20
65036;DHT22;51603;49.300;8.880;2022-07-30T15:54:24;29.00;41.30
65036;DHT22;51603;49.300;8.880;2022-07-30T15:56:51;28.90;41.50
65036;DHT22;51603;49.300;8.880;2022-07-30T15:59:18;28.70;40.20
65036;DHT22;51603;49.300;8.880;2022-07-30T16:01:43;28.70;39.60
65036;DHT22;51603;49.300;8.880;2022-07-30T16:04:09;28.80;40.00
65036;DHT22;51603;49.300;8.880;2022-07-30T16:06:35;29.10;40.60